Terminal Aerodrome Forecast
Issued by NWS

Home | Current Version | Previous Version | Graphics & Text | Print | Product List | Glossary On
Versions: 1 2 3 4 5 6 7 8 9 10 11 12 13 14 15 16 17 18 19
000
FTUS43 KEAX 250900 AAB
TAFMKC
TAF AMD
KMKC 250949Z 2510/2606 VRB02KT 2SM BR SKC
      TEMPO 2510/2513 1/2SM FG
     FM251400 VRB05KT P6SM SKC
     FM252100 11004KT P6SM SKC=

USA.gov is the U.S. government's official web portal to all federal, state and local government web resources and services.